ADDS METAR Data INFO
IDs: Format: Raw Decoded Include TAF

Data at: 1500 UTC 11 Dec 2017

KVJI 111455Z AUTO 27005KT 10SM CLR 03/M04 A3012 RMK AO2 T00251038
KVJI 111435Z AUTO 27006KT 10SM CLR 02/M04 A3012 RMK AO2 T00201040
KVJI 111415Z AUTO 25004KT 10SM CLR 01/M04 A3011 RMK AO2 T00091043
KVJI 111355Z AUTO 00000KT 10SM CLR 00/M05 A3011 RMK AO2 T00001046
KVJI 111335Z AUTO 26003KT 10SM CLR M01/M05 A3012 RMK AO2 T10091051
KVJI 111315Z AUTO 26004KT 10SM CLR M02/M05 A3011 RMK AO2 T10211055
KVJI 111255Z AUTO 00000KT 10SM CLR M03/M06 A3011 RMK AO2 T10261058
KVJI 111235Z AUTO 00000KT 10SM CLR M02/M06 A3010 RMK AO2 T10221057
KVJI 111215Z AUTO 00000KT 10SM CLR M02/M06 A3010 RMK AO2 T10211058
KVJI 111155Z AUTO 29003KT 10SM CLR M02/M06 A3010 RMK AO2 T10201060 11010 21027
KVJI 111135Z AUTO 29004KT 10SM CLR M02/M06 A3009 RMK AO2 T10201060
KVJI 111115Z AUTO 28004KT 10SM CLR M03/M06 A3009 RMK AO2 T10261061
KVJI 111055Z AUTO 27003KT 10SM CLR M02/M06 A3009 RMK AO2 T10211064
KVJI 111035Z AUTO 28003KT 10SM CLR M02/M06 A3009 RMK AO2 T10221062
KVJI 111015Z AUTO 26003KT 10SM CLR M02/M06 A3009 RMK AO2 T10251065
KVJI 110955Z AUTO 27003KT 10SM CLR M02/M06 A3010 RMK AO2 T10161062
KVJI 110935Z AUTO 28003KT 10SM CLR M02/M06 A3011 RMK AO2 T10211063
KVJI 110915Z AUTO 28005KT 10SM CLR M02/M06 A3011 RMK AO2 T10211065
KVJI 110855Z AUTO 27004KT 10SM CLR M01/M06 A3011 RMK AO2 T10141065
KVJI 110835Z AUTO 28003KT 10SM CLR M02/M06 A3012 RMK AO2 T10171065
KVJI 110815Z AUTO 27004KT 10SM CLR M02/M06 A3011 RMK AO2 T10171065
KVJI 110755Z AUTO 27004KT 10SM CLR M01/M06 A3011 RMK AO2 T10151064
KVJI 110735Z AUTO 27007KT 10SM CLR M01/M06 A3011 RMK AO2 T10111065
KVJI 110715Z AUTO 28006KT 10SM CLR M01/M06 A3012 RMK AO2 T10101065
KVJI 110655Z AUTO 28007KT 10SM CLR M01/M06 A3011 RMK AO2 T10121065
KVJI 110635Z AUTO 28006KT 10SM CLR M01/M07 A3011 RMK AO2 T10151066
KVJI 110615Z AUTO 27006KT 10SM CLR M01/M07 A3012 RMK AO2 T10111068
KVJI 110555Z AUTO 28005KT 10SM CLR M01/M07 A3012 RMK AO2 T10101069 10000 21020 400251023
KVJI 110535Z AUTO 28005KT 10SM CLR M01/M07 A3013 RMK AO2 T10101070
KVJI 110515Z AUTO 28006KT 10SM SCT100 M01/M07 A3013 RMK AO2 T10071070
KVJI 110455Z AUTO 28006KT 10SM BKN100 M01/M07 A3014 RMK AO2 T10091069
KVJI 110435Z AUTO 27005KT 10SM SCT110 M01/M07 A3013 RMK AO2 T10151070
KVJI 110415Z AUTO 27005KT 10SM SCT110 M01/M07 A3013 RMK AO2 T10151070
KVJI 110355Z AUTO 28004KT 10SM CLR M01/M07 A3013 RMK AO2 T10131073
KVJI 110335Z AUTO 28004KT 10SM CLR M01/M07 A3013 RMK AO2 T10121073
KVJI 110315Z AUTO 27006KT 10SM CLR M02/M07 A3013 RMK AO2 T10171073
KVJI 110255Z AUTO 28005KT 10SM CLR M01/M07 A3012 RMK AO2 T10121073
KVJI 110235Z AUTO 29003KT 10SM CLR 00/M07 A3012 RMK AO2 T10051075
KVJI 110215Z AUTO 29004KT 10SM CLR M01/M07 A3011 RMK AO2 T10101072
KVJI 110155Z AUTO 24004KT 10SM CLR 00/M07 A3010 RMK AO2 T10051073
KVJI 110135Z AUTO 25004KT 10SM CLR 00/M07 A3010 RMK AO2 T00001075
KVJI 110115Z AUTO 26004KT 10SM CLR 00/M07 A3010 RMK AO2 T10011075
KVJI 110055Z AUTO 29004KT 10SM CLR 00/M07 A3010 RMK AO2 T10021074
KVJI 110035Z AUTO 29003KT 10SM CLR 00/M07 A3010 RMK AO2 T00001073
KVJI 110015Z AUTO 24003KT 10SM CLR 00/M07 A3008 RMK AO2 T00001074
KVJI 102355Z AUTO 28004KT 10SM CLR 00/M07 A3009 RMK AO2 T00001070 10025 20000
KVJI 102335Z AUTO 27004KT 10SM CLR 00/M07 A3009 RMK AO2 T00001068
KVJI 102315Z AUTO 26005KT 10SM CLR 01/M07 A3008 RMK AO2 T00051066
KVJI 102255Z AUTO 27005KT 10SM CLR 01/M06 A3008 RMK AO2 T00061064
KVJI 102235Z AUTO 25004KT 10SM CLR 01/M06 A3008 RMK AO2 T00111063
KVJI 102215Z AUTO 27009KT 10SM CLR 02/M07 A3009 RMK AO2 T00151067
KVJI 102155Z AUTO 25008KT 10SM CLR 02/M06 A3008 RMK AO2 T00181058
KVJI 102135Z AUTO 24009KT 10SM CLR 02/M06 A3008 RMK AO2 T00201061
KVJI 102115Z AUTO 24011KT 10SM CLR 02/M06 A3008 RMK AO2 T00231064
KVJI 102055Z AUTO 24009KT 10SM CLR 03/M05 A3008 RMK AO2 T00251053
KVJI 102035Z AUTO 26010KT 10SM CLR 02/M05 A3008 RMK AO2 T00221050
KVJI 102015Z AUTO 24010KT 10SM CLR 02/M05 A3008 RMK AO2 T00211047
KVJI 101955Z AUTO 23011G14KT 10SM CLR 02/M05 A3008 RMK AO2 T00201048
KVJI 101935Z AUTO 25009KT 10SM CLR 02/M05 A3008 RMK AO2 T00201051
KVJI 101915Z AUTO 26009KT 10SM CLR 02/M06 A3009 RMK AO2 T00161059
KVJI 101855Z AUTO 26008KT 10SM CLR 01/M05 A3009 RMK AO2 T00141054
KVJI 101835Z AUTO 26011G14KT 10SM CLR 01/M06 A3009 RMK AO2 T00121060
KVJI 101815Z AUTO 27012KT 10SM SCT031 01/M06 A3011 RMK AO2 T00091062
KVJI 101755Z AUTO 27010KT 10SM CLR 01/M06 A3012 RMK AO2 T00081059 10008 21023
KVJI 101735Z AUTO 26011G16KT 10SM SCT029 00/M06 A3011 RMK AO2 T00041060
KVJI 101715Z AUTO 25012KT 10SM BKN029 00/M06 A3012 RMK AO2 T00041058
KVJI 101655Z AUTO 27007G14KT 10SM SCT028 00/M06 A3014 RMK AO2 T10031065
KVJI 101635Z AUTO 27010KT 10SM BKN026 00/M06 A3015 RMK AO2 T10041065
KVJI 101615Z AUTO 26012G16KT 10SM SCT026 00/M07 A3016 RMK AO2 T10051066
KVJI 101555Z AUTO 28008KT 10SM SCT026 M01/M07 A3016 RMK AO2 T10121071
KVJI 101535Z AUTO 29008KT 10SM OVC026 M01/M07 A3016 RMK AO2 T10131072
KVJI 101515Z AUTO 29008KT 10SM OVC026 M01/M07 A3016 RMK AO2 T10151071
KVJI 101455Z AUTO 28009KT 10SM OVC026 M02/M07 A3017 RMK AO2 T10161072
KVJI 101435Z AUTO 28012KT 10SM OVC028 M02/M07 A3016 RMK AO2 T10181071
KVJI 101415Z AUTO 27006KT 10SM OVC030 M02/M07 A3016 RMK AO2 T10191066
KVJI 101355Z AUTO 29009KT 10SM OVC030 M02/M07 A3015 RMK AO2 T10201067
KVJI 101335Z AUTO 28007KT 10SM OVC030 M02/M07 A3014 RMK AO2 T10221066
KVJI 101315Z AUTO 28006KT 10SM OVC030 M02/M06 A3014 RMK AO2 T10221065
KVJI 101255Z AUTO 28006KT 10SM OVC030 M02/M06 A3013 RMK AO2 T10231064
KVJI 101235Z AUTO 28007KT 10SM OVC030 M02/M06 A3012 RMK AO2 T10221065
KVJI 101215Z AUTO 29006KT 10SM OVC030 M02/M06 A3011 RMK AO2 T10231064
KVJI 101155Z AUTO 28006KT 10SM OVC030 M02/M06 A3011 RMK AO2 70002 T10221064 11015 21022
KVJI 101135Z AUTO 28005KT 10SM OVC028 M02/M06 A3010 RMK AO2 T10211064
KVJI 101115Z AUTO 28007KT 10SM OVC028 M02/M06 A3010 RMK AO2 T10211063
KVJI 101055Z AUTO 29008KT 10SM OVC030 M02/M06 A3009 RMK AO2 T10201062
KVJI 101035Z AUTO 28007KT 10SM OVC030 M02/M06 A3009 RMK AO2 T10201061
KVJI 101015Z AUTO 28008KT 10SM OVC030 M02/M06 A3008 RMK AO2 T10171063
KVJI 100955Z AUTO 29008KT 10SM OVC030 M02/M06 A3007 RMK AO2 T10181062
KVJI 100935Z AUTO 28008KT 10SM OVC028 M02/M06 A3007 RMK AO2 T10161062
KVJI 100915Z AUTO 29009KT 10SM OVC030 M02/M06 A3006 RMK AO2 T10161060
KVJI 100855Z AUTO 28009KT 10SM OVC035 M02/M06 A3006 RMK AO2 T10161060
KVJI 100835Z AUTO 29007KT 10SM OVC035 M01/M06 A3006 RMK AO2 T10151060
KVJI 100815Z AUTO 31008KT 10SM SCT022 OVC035 M02/M06 A3006 RMK AO2 T10161058
KVJI 100755Z AUTO 31007G18KT 10SM BKN022 OVC035 M02/M05 A3005 RMK AO2 T10161055
KVJI 100735Z AUTO 31005KT 10SM OVC020 M02/M05 A3004 RMK AO2 T10161050
KVJI 100715Z AUTO 29006KT 10SM SCT018 OVC024 M02/M05 A3003 RMK AO2 T10161050
KVJI 100655Z AUTO 32005KT 10SM -SN BKN018 OVC023 M02/M05 A3003 RMK AO2 T10171046
KVJI 100635Z AUTO 28009KT 10SM -SN BKN017 OVC024 M02/M04 A3002 RMK AO2 T10191045
KVJI 100615Z AUTO 28010KT 10SM -SN BKN017 BKN027 OVC038 M02/M04 A3001 RMK AO2 T10201043
KVJI 100555Z AUTO 29010KT 10SM -SN BKN015 BKN026 OVC044 M02/M04 A3001 RMK AO2 T10201043 10003 21022 400101022
KVJI 100535Z AUTO 29007G14KT 7SM -SN SCT015 BKN021 OVC043 M02/M04 A3000 RMK AO2 T10201042
KVJI 100515Z AUTO 29009KT 7SM -SN SCT012 BKN018 OVC045 M02/M04 A3000 RMK AO2 T10211042
KVJI 100455Z AUTO 28011KT 7SM -SN BKN017 BKN034 OVC043 M02/M04 A2999 RMK AO2 T10201044
KVJI 100435Z AUTO 29006KT 7SM -SN SCT016 BKN030 OVC036 M02/M04 A2999 RMK AO2 T10201044
KVJI 100415Z AUTO 30009KT 4SM -SN SCT023 BKN028 OVC035 M02/M05 A2998 RMK AO2 T10171050
KVJI 100355Z AUTO 29009G14KT 10SM SCT026 OVC033 M01/M06 A2998 RMK AO2 T10151058
KVJI 100335Z AUTO 29008KT 10SM BKN028 BKN037 OVC055 M01/M05 A2997 RMK AO2 T10151051
KVJI 100315Z AUTO 29008KT 10SM -SN SCT030 SCT039 OVC065 M01/M04 A2995 RMK AO2 T10151040